Time;durP1;ratioP1;P1;durP2;ratioP2;P2;SDS_P1;SDS_P2;PMS_P1;PMS_P2;Temp;Humidity;BMP_temperature;BMP_pressure;BME280_temperature;BME280_humidity;BME280_pressure;Samples;Min_cycle;Max_cycle;Signal;HPM_P1;HPM_P2
2023/03/24 00:00:10;;;;;;;12.07;4.05;;;;;;;9.57;100.00;99736.41;5055477;28;20039;-72
2023/03/24 00:02:40;;;;;;;11.82;4.53;;;;;;;9.57;100.00;99719.63;5055372;28;20064;-71
2023/03/24 00:05:09;;;;;;;9.13;4.10;;;;;;;9.63;100.00;99737.59;5055539;28;20028;-72
2023/03/24 00:07:37;;;;;;;11.07;3.90;;;;;;;9.62;100.00;99722.66;5055270;28;20029;-71
2023/03/24 00:10:08;;;;;;;7.47;4.20;;;;;;;9.65;100.00;99719.69;5055180;28;20029;-71
2023/03/24 00:12:37;;;;;;;10.25;4.47;;;;;;;9.64;100.00;99713.53;5037316;28;20127;-71
2023/03/24 00:15:05;;;;;;;7.22;3.95;;;;;;;9.65;100.00;99723.16;5054776;28;20048;-71
2023/03/24 00:17:30;;;;;;;11.45;4.25;;;;;;;9.66;100.00;99718.69;5036998;28;20112;-71
2023/03/24 00:19:56;;;;;;;8.23;4.55;;;;;;;9.66;100.00;99714.22;5054648;28;20071;-71
2023/03/24 00:22:22;;;;;;;8.25;4.18;;;;;;;9.67;100.00;99707.91;5055066;28;20457;-71
2023/03/24 00:24:48;;;;;;;7.78;4.32;;;;;;;9.71;100.00;99698.59;5054508;28;20060;-70
2023/03/24 00:27:16;;;;;;;9.43;4.47;;;;;;;9.73;100.00;99673.72;5037069;28;20029;-71
2023/03/24 00:29:42;;;;;;;9.23;4.00;;;;;;;9.79;100.00;99681.03;5054760;28;20028;-70
2023/03/24 00:32:07;;;;;;;8.48;3.78;;;;;;;9.83;100.00;99696.47;5054796;28;20067;-70
2023/03/24 00:34:37;;;;;;;8.35;3.65;;;;;;;9.86;100.00;99677.56;5054792;28;20098;-72
2023/03/24 00:37:03;;;;;;;8.60;4.07;;;;;;;9.87;100.00;99683.72;5054252;28;20495;-71
2023/03/24 00:39:29;;;;;;;7.30;3.55;;;;;;;9.90;100.00;99691.38;5054958;28;20064;-70
2023/03/24 00:41:57;;;;;;;9.55;3.65;;;;;;;9.91;100.00;99670.94;5054079;28;20539;-71
2023/03/24 00:44:23;;;;;;;6.60;3.00;;;;;;;9.94;100.00;99678.56;5054221;28;20037;-71
2023/03/24 00:46:54;;;;;;;7.72;3.05;;;;;;;9.97;100.00;99657.84;5054300;28;20087;-71
2023/03/24 00:49:40;;;;;;;6.47;3.58;;;;;;;9.99;100.00;99663.00;5054558;28;20068;-71
2023/03/24 00:52:10;;;;;;;8.75;3.30;;;;;;;9.98;100.00;99661.31;5053995;28;20036;-70
2023/03/24 00:54:37;;;;;;;8.38;3.47;;;;;;;9.95;100.00;99643.88;5053488;28;20040;-71
2023/03/24 00:57:03;;;;;;;6.88;3.33;;;;;;;9.96;100.00;99668.63;5054018;28;20033;-70
2023/03/24 00:59:29;;;;;;;11.02;4.07;;;;;;;9.97;100.00;99654.34;5054372;28;20029;-71
2023/03/24 01:01:55;;;;;;;6.85;3.10;;;;;;;9.97;100.00;99651.66;5053886;28;20033;-71
2023/03/24 01:04:25;;;;;;;8.02;4.00;;;;;;;9.94;100.00;99654.66;5054239;28;20456;-71
2023/03/24 01:06:51;;;;;;;8.65;3.85;;;;;;;9.90;100.00;99643.53;5053402;28;20036;-71
2023/03/24 01:09:20;;;;;;;7.88;3.63;;;;;;;9.95;100.00;99659.00;5054114;28;20120;-71
2023/03/24 01:11:45;;;;;;;9.15;3.97;;;;;;;9.93;100.00;99651.19;5054003;28;20116;-70
2023/03/24 01:14:11;;;;;;;9.73;4.40;;;;;;;9.96;100.00;99653.50;5053874;28;20116;-71
2023/03/24 01:16:37;;;;;;;10.35;4.13;;;;;;;9.93;100.00;99650.34;5053931;28;20433;-71
2023/03/24 01:19:03;;;;;;;10.23;4.40;;;;;;;9.93;100.00;99648.53;5053605;28;20390;-71
2023/03/24 01:21:30;;;;;;;8.60;4.05;;;;;;;9.91;100.00;99665.63;5069258;28;20385;-71
2023/03/24 01:23:56;;;;;;;6.47;4.32;;;;;;;9.91;100.00;99650.50;5035930;28;20037;-70
2023/03/24 01:26:22;;;;;;;11.43;3.88;;;;;;;9.92;100.00;99660.13;5053820;28;20029;-71
2023/03/24 01:28:47;;;;;;;7.07;3.75;;;;;;;9.93;100.00;99645.88;5053608;28;20366;-73
2023/03/24 01:31:12;;;;;;;5.72;3.25;;;;;;;9.95;100.00;99665.13;5053697;28;20029;-72
2023/03/24 01:33:38;;;;;;;4.88;2.67;;;;;;;9.96;100.00;99674.78;5053702;28;20068;-70
2023/03/24 01:36:05;;;;;;;7.28;2.90;;;;;;;9.92;100.00;99737.19;5053275;28;20461;-70
2023/03/24 01:38:31;;;;;;;6.63;2.40;;;;;;;9.92;100.00;99705.31;5053553;28;20140;-69
2023/03/24 01:40:56;;;;;;;6.43;2.67;;;;;;;9.87;100.00;99727.06;5053389;28;20444;-70
2023/03/24 01:43:29;;;;;;;7.80;2.55;;;;;;;9.72;100.00;99715.41;5053501;28;20112;-68
2023/03/24 01:46:05;;;;;;;10.90;2.53;;;;;;;9.56;100.00;99718.00;5052618;28;20049;-69
2023/03/24 01:48:58;;;;;;;6.50;2.28;;;;;;;9.45;100.00;99735.88;5053644;28;20033;-69
2023/03/24 01:51:34;;;;;;;11.88;2.58;;;;;;;9.37;100.00;99741.13;5053507;28;20021;-69
2023/03/24 01:54:03;;;;;;;7.90;2.00;;;;;;;9.30;100.00;99751.56;5052892;28;20104;-70
2023/03/24 01:56:34;;;;;;;11.00;2.97;;;;;;;9.20;100.00;99752.66;5053216;28;20048;-68
2023/03/24 01:59:02;;;;;;;7.03;2.05;;;;;;;9.06;100.00;99751.38;5052845;28;20465;-68
2023/03/24 02:01:29;;;;;;;8.13;2.13;;;;;;;8.95;100.00;99752.47;5035527;28;20033;-69
2023/03/24 02:04:02;;;;;;;6.85;1.58;;;;;;;8.91;100.00;99767.88;5052740;28;20083;-68
2023/03/24 02:06:28;;;;;;;4.78;1.95;;;;;;;8.87;100.00;99769.19;5052632;28;20463;-68
2023/03/24 02:08:56;;;;;;;5.70;2.10;;;;;;;8.83;100.00;99767.81;5052621;28;20037;-69
2023/03/24 02:11:25;;;;;;;9.98;2.55;;;;;;;8.78;100.00;99770.94;5052936;28;20103;-69
2023/03/24 02:13:51;;;;;;;10.13;1.83;;;;;;;8.76;100.00;99766.75;5052824;28;20029;-69
2023/03/24 02:16:41;;;;;;;10.05;1.77;;;;;;;8.77;100.00;99774.56;5052452;28;20036;-69
2023/03/24 02:19:37;;;;;;;8.43;1.92;;;;;;;8.77;100.00;99774.56;5052413;28;20037;-69
2023/03/24 02:22:12;;;;;;;6.03;1.60;;;;;;;8.83;100.00;99794.34;5052458;28;20083;-67
2023/03/24 02:25:15;;;;;;;3.83;1.30;;;;;;;8.80;100.00;99795.47;5052926;28;20116;-71
2023/03/24 02:28:08;;;;;;;14.43;1.92;;;;;;;8.79;100.00;99803.56;5052960;28;20028;-69
2023/03/24 02:31:07;;;;;;;10.23;2.10;;;;;;;8.76;100.00;99807.38;5052875;28;20025;-70
2023/03/24 02:33:53;;;;;;;7.93;2.20;;;;;;;8.73;100.00;99805.03;5052496;28;20036;-68
2023/03/24 02:36:56;;;;;;;10.13;1.80;;;;;;;8.70;100.00;99800.03;5052233;28;20060;-71
2023/03/24 02:39:34;;;;;;;15.88;2.40;;;;;;;8.64;100.00;99805.94;5010936;28;20037;-69
2023/03/24 02:42:40;;;;;;;12.35;2.25;;;;;;;8.52;100.00;99802.66;5051927;28;20487;-69
2023/03/24 02:45:34;;;;;;;13.80;2.65;;;;;;;8.40;100.00;99812.63;5051754;28;20063;-69
2023/03/24 02:48:18;;;;;;;16.05;2.08;;;;;;;8.29;100.00;99823.47;5051931;28;20032;-69
2023/03/24 02:50:58;;;;;;;13.00;2.50;;;;;;;8.16;100.00;99837.06;5052493;28;20025;-69
2023/03/24 02:53:24;;;;;;;12.48;2.42;;;;;;;8.06;100.00;99821.22;5051818;28;20033;-69
2023/03/24 02:55:55;;;;;;;8.90;1.90;;;;;;;8.01;100.00;99828.75;5052398;28;20033;-69
2023/03/24 02:58:34;;;;;;;;;;;;;;;7.95;100.00;99837.31;5052325;28;20035;-69
2023/03/24 03:01:07;;;;;;;12.20;2.92;;;;;;;7.92;100.00;99843.72;5052862;28;19917;-69
2023/03/24 03:03:51;;;;;;;15.85;2.65;;;;;;;7.94;100.00;99847.06;5052440;28;20380;-70
2023/03/24 03:06:38;;;;;;;19.38;2.70;;;;;;;7.92;100.00;99856.13;5052028;28;20024;-69
2023/03/24 03:09:08;;;;;;;17.77;2.67;;;;;;;7.83;100.00;99870.25;5051919;28;20025;-69
2023/03/24 03:11:35;;;;;;;12.48;2.10;;;;;;;7.72;100.00;99861.50;5052158;28;20036;-69
2023/03/24 03:14:17;;;;;;;13.93;2.60;;;;;;;7.68;100.00;99864.59;5051898;28;20028;-69
2023/03/24 03:16:53;;;;;;;15.93;2.55;;;;;;;7.68;100.00;99873.34;5051979;28;20056;-69
2023/03/24 03:19:24;;;;;;;15.55;2.55;;;;;;;7.67;100.00;99868.22;5054739;28;20036;-69
2023/03/24 03:21:51;;;;;;;12.68;1.95;;;;;;;7.70;100.00;99863.47;5056212;28;20107;-69
2023/03/24 03:24:26;;;;;;;17.27;2.50;;;;;;;7.74;100.00;99870.13;5055725;28;20033;-70
2023/03/24 03:27:02;;;;;;;17.40;2.30;;;;;;;7.80;100.00;99875.84;5056387;28;20032;-68
2023/03/24 03:29:33;;;;;;;13.75;2.28;;;;;;;7.83;100.00;99884.31;5055752;28;20422;-69
2023/03/24 03:32:06;;;;;;;18.55;2.78;;;;;;;7.85;100.00;99878.88;5056047;28;20029;-69
2023/03/24 03:34:44;;;;;;;19.70;2.85;;;;;;;7.85;100.00;99878.88;5055843;28;20524;-69
2023/03/24 03:37:25;;;;;;;12.43;2.58;;;;;;;7.90;100.00;99881.94;5055686;28;20112;-69
2023/03/24 03:39:58;;;;;;;12.63;3.30;;;;;;;7.91;100.00;99873.84;5055908;28;20029;-68
2023/03/24 03:42:24;;;;;;;16.75;2.45;;;;;;;7.94;100.00;99883.31;5055217;28;20037;-69
2023/03/24 03:44:49;;;;;;;22.30;3.22;;;;;;;7.91;100.00;99888.88;5055643;28;20443;-69
2023/03/24 03:47:15;;;;;;;14.93;2.75;;;;;;;7.87;100.00;99890.19;5055384;28;20438;-69
2023/03/24 03:49:42;;;;;;;18.10;2.75;;;;;;;7.79;100.00;99882.13;5055646;28;20414;-68
2023/03/24 03:52:08;;;;;;;15.60;2.63;;;;;;;7.69;100.00;99892.75;5055120;28;20464;-69
2023/03/24 03:54:35;;;;;;;20.10;3.55;;;;;;;7.67;100.00;99890.22;5055511;28;20037;-69
2023/03/24 03:57:00;;;;;;;28.35;3.20;;;;;;;7.63;100.00;99891.50;5055601;28;20033;-69
2023/03/24 03:59:34;;;;;;;18.40;3.38;;;;;;;7.58;100.00;99897.22;5055066;28;20021;-68
2023/03/24 04:02:20;;;;;;;19.63;3.22;;;;;;;7.51;100.00;99893.47;5055301;28;20116;-69
2023/03/24 04:05:13;;;;;;;29.90;3.38;;;;;;;7.51;100.00;99887.31;5024034;28;20045;-69
2023/03/24 04:08:11;;;;;;;20.50;3.22;;;;;;;7.52;100.00;99904.88;5055166;28;20041;-69
2023/03/24 04:10:45;;;;;;;29.77;3.85;;;;;;;7.51;100.00;99921.75;5055370;28;20055;-69
2023/03/24 04:13:41;;;;;;;41.97;4.63;;;;;;;7.46;100.00;99916.88;5054803;28;20029;-69
2023/03/24 04:16:25;;;;;;;35.30;3.72;;;;;;;7.45;100.00;99923.16;5055240;28;20388;-69
2023/03/24 04:19:20;;;;;;;25.60;3.83;;;;;;;7.38;100.00;99914.09;5054925;28;20428;-69
2023/03/24 04:21:58;;;;;;;26.02;4.10;;;;;;;7.30;100.00;99917.47;5055151;28;20416;-68
2023/03/24 04:24:58;;;;;;;20.10;2.80;;;;;;;7.20;100.00;99928.03;5054709;28;20104;-70
2023/03/24 04:27:47;;;;;;;18.80;3.10;;;;;;;7.12;100.00;99930.56;5002919;28;20037;-68
2023/03/24 04:30:46;;;;;;;36.33;4.32;;;;;;;7.02;100.00;99943.75;5054421;28;20036;-69
2023/03/24 04:33:24;;;;;;;24.63;3.70;;;;;;;6.96;100.00;99954.91;5054547;28;20033;-68
2023/03/24 04:36:05;;;;;;;26.65;3.78;;;;;;;6.98;100.00;99947.66;5055192;28;20036;-70
2023/03/24 04:38:34;;;;;;;38.58;4.60;;;;;;;7.00;100.00;99950.16;5054145;28;20108;-70
2023/03/24 04:41:02;;;;;;;32.35;4.07;;;;;;;6.97;100.00;99956.59;5054696;28;20033;-69
2023/03/24 04:43:34;;;;;;;20.30;3.83;;;;;;;6.96;100.00;99946.16;5054414;28;20037;-68
2023/03/24 04:46:02;;;;;;;23.30;2.90;;;;;;;6.97;100.00;99951.28;5054294;28;20045;-68
2023/03/24 04:48:28;;;;;;;28.02;4.25;;;;;;;6.97;100.00;99951.28;5054155;28;20044;-69
2023/03/24 04:50:57;;;;;;;24.90;3.70;;;;;;;6.99;100.00;99957.28;5054312;28;20037;-69
2023/03/24 04:53:23;;;;;;;31.17;3.53;;;;;;;7.01;100.00;99962.41;5054016;28;20127;-69
2023/03/24 04:55:48;;;;;;;30.65;3.97;;;;;;;6.97;100.00;99971.59;5069855;28;20041;-69
2023/03/24 04:58:15;;;;;;;27.63;4.03;;;;;;;6.96;100.00;99969.94;5054098;28;20056;-71
2023/03/24 05:00:43;;;;;;;38.72;6.00;;;;;;;6.98;100.00;99975.91;5054382;28;20037;-69
2023/03/24 05:03:12;;;;;;;24.45;4.00;;;;;;;6.98;100.00;99973.28;5054307;28;20044;-69
2023/03/24 05:05:42;;;;;;;37.22;4.72;;;;;;;6.96;100.00;99970.78;5053535;28;20479;-70
2023/03/24 05:08:07;;;;;;;25.98;3.88;;;;;;;7.03;100.00;99978.97;5054237;28;20032;-68
2023/03/24 05:10:34;;;;;;;41.33;4.97;;;;;;;7.09;100.00;99988.19;5053385;28;20037;-68
2023/03/24 05:12:59;;;;;;;32.33;4.18;;;;;;;7.15;100.00;99979.69;5053638;28;20120;-68
2023/03/24 05:15:25;;;;;;;39.60;5.53;;;;;;;7.16;100.00;99981.38;5053247;28;20159;-68
2023/03/24 05:17:51;;;;;;;38.67;6.03;;;;;;;7.18;100.00;99990.84;5053942;28;20044;-68
2023/03/24 05:20:17;;;;;;;27.73;3.45;;;;;;;7.23;100.00;99995.72;5053715;28;20454;-69
2023/03/24 05:22:42;;;;;;;23.20;3.88;;;;;;;7.24;100.00;100005.34;5053918;28;20119;-69
2023/03/24 05:25:08;;;;;;;25.52;3.75;;;;;;;7.27;100.00;99993.63;5054199;28;20029;-68
2023/03/24 05:27:33;;;;;;;27.25;3.83;;;;;;;7.36;100.00;100003.38;5053748;28;20056;-69
2023/03/24 05:29:59;;;;;;;31.42;4.07;;;;;;;7.41;100.00;100014.41;5053802;28;20033;-69
2023/03/24 05:32:24;;;;;;;27.83;4.25;;;;;;;7.45;100.00;100002.56;5053205;28;20091;-70
2023/03/24 05:34:50;;;;;;;27.10;3.92;;;;;;;7.50;100.00;100013.56;5053710;28;20037;-69
2023/03/24 05:37:16;;;;;;;31.08;4.28;;;;;;;7.50;100.00;100012.72;5053540;28;20039;-68
2023/03/24 05:39:42;;;;;;;35.47;4.75;;;;;;;7.52;100.00;100027.47;5035453;28;20091;-68
2023/03/24 05:42:09;;;;;;;28.40;4.15;;;;;;;7.51;100.00;100014.38;5053062;28;20115;-68
2023/03/24 05:44:34;;;;;;;30.63;4.35;;;;;;;7.53;100.00;100030.97;5052456;28;20032;-68
2023/03/24 05:47:00;;;;;;;28.45;4.03;;;;;;;7.52;100.00;100018.72;5053728;28;20479;-68
2023/03/24 05:49:25;;;;;;;29.65;4.07;;;;;;;7.54;100.00;100016.78;5053071;28;20117;-69
2023/03/24 05:51:51;;;;;;;31.17;3.90;;;;;;;7.54;100.00;100037.97;5053570;28;20108;-69
2023/03/24 05:54:16;;;;;;;31.42;4.43;;;;;;;7.58;100.00;100040.19;5053347;28;20033;-68
2023/03/24 05:56:42;;;;;;;22.63;4.60;;;;;;;7.62;100.00;100045.22;5052734;28;20477;-69
2023/03/24 05:59:07;;;;;;;33.60;5.32;;;;;;;7.66;100.00;100041.28;5053260;28;20660;-68
2023/03/24 06:01:32;;;;;;;26.50;4.22;;;;;;;7.69;100.00;100035.72;5052664;28;20036;-69
2023/03/24 06:03:58;;;;;;;25.40;4.68;;;;;;;7.73;100.00;100045.91;5052924;28;20401;-69
2023/03/24 06:06:25;;;;;;;33.15;4.10;;;;;;;7.77;100.00;100047.28;5052584;28;20033;-70
2023/03/24 06:08:53;;;;;;;32.83;5.13;;;;;;;7.79;100.00;100049.78;5052849;28;20037;-69
2023/03/24 06:11:19;;;;;;;33.42;4.90;;;;;;;7.85;100.00;100049.25;5053050;28;20154;-69
2023/03/24 06:13:44;;;;;;;28.35;4.03;;;;;;;7.90;100.00;100044.34;5052606;28;20108;-69
2023/03/24 06:16:11;;;;;;;26.73;3.58;;;;;;;7.89;100.00;100055.09;5053009;28;20452;-69
2023/03/24 06:18:39;;;;;;;25.38;4.03;;;;;;;7.90;100.00;100043.53;5052633;28;20036;-69
2023/03/24 06:21:05;;;;;;;34.53;4.00;;;;;;;7.92;100.00;100060.09;5052995;28;20037;-69
2023/03/24 06:23:32;;;;;;;30.73;4.15;;;;;;;7.95;100.00;100070.41;5052444;28;20040;-69
2023/03/24 06:26:00;;;;;;;36.05;4.65;;;;;;;7.97;100.00;100073.75;5035275;28;20091;-69
2023/03/24 06:28:29;;;;;;;29.60;4.68;;;;;;;7.99;100.00;100082.41;5052102;28;20422;-69
2023/03/24 06:30:55;;;;;;;37.08;4.40;;;;;;;8.00;100.00;100065.53;5052767;28;20118;-69
2023/03/24 06:33:24;;;;;;;34.90;4.78;;;;;;;8.01;100.00;100079.59;5052650;28;20388;-69
2023/03/24 06:35:50;;;;;;;31.65;4.88;;;;;;;7.98;100.00;100069.28;5052518;28;20041;-68
2023/03/24 06:38:16;;;;;;;23.33;4.00;;;;;;;7.98;100.00;100078.06;5052624;28;20086;-68
2023/03/24 06:40:41;;;;;;;30.67;4.57;;;;;;;7.94;100.00;100076.66;5052430;28;20415;-69
2023/03/24 06:43:06;;;;;;;35.05;5.10;;;;;;;7.95;100.00;100073.88;5052629;28;20039;-69
2023/03/24 06:45:32;;;;;;;27.25;3.92;;;;;;;7.97;100.00;100086.97;5051856;28;20065;-69
2023/03/24 06:47:58;;;;;;;27.00;4.28;;;;;;;8.01;100.00;100093.69;5052527;28;20033;-69
2023/03/24 06:50:25;;;;;;;33.80;4.30;;;;;;;8.04;100.00;100092.56;5052854;28;20362;-69
2023/03/24 06:52:52;;;;;;;34.28;4.55;;;;;;;8.04;100.00;100095.22;5051116;28;20071;-69
2023/03/24 06:55:18;;;;;;;32.85;4.03;;;;;;;8.08;100.00;100097.44;5052411;28;20033;-69
2023/03/24 06:57:44;;;;;;;23.42;4.35;;;;;;;8.11;100.00;100105.09;5051990;28;20079;-69
2023/03/24 07:00:10;;;;;;;25.27;4.07;;;;;;;8.10;100.00;100103.44;5052138;28;20029;-69
2023/03/24 07:02:36;;;;;;;27.48;3.83;;;;;;;8.14;100.00;100089.94;5051780;28;20227;-69
2023/03/24 07:05:06;;;;;;;29.10;4.20;;;;;;;8.17;100.00;100101.06;5052083;28;20060;-70
2023/03/24 07:07:32;;;;;;;27.43;3.93;;;;;;;8.20;100.00;100110.56;5051899;28;20033;-70
2023/03/24 07:09:58;;;;;;;24.95;4.28;;;;;;;8.21;100.00;100112.22;5052084;28;20259;-68
2023/03/24 07:12:24;;;;;;;32.45;4.90;;;;;;;8.18;100.00;100115.13;5051923;28;20385;-68
2023/03/24 07:14:49;;;;;;;45.85;4.65;;;;;;;8.22;100.00;100132.44;5051358;28;20033;-68
2023/03/24 07:17:15;;;;;;;28.67;4.43;;;;;;;8.29;100.00;100121.13;5052106;28;20488;-68
2023/03/24 07:19:40;;;;;;;34.70;4.43;;;;;;;8.35;100.00;100127.69;5051350;28;20044;-68
2023/03/24 07:22:07;;;;;;;25.50;3.67;;;;;;;8.37;100.00;100130.19;5051968;28;20170;-68
2023/03/24 07:24:33;;;;;;;33.45;4.97;;;;;;;8.38;100.00;100135.34;5051649;28;20123;-69
2023/03/24 07:26:59;;;;;;;29.23;4.43;;;;;;;8.46;100.00;100140.81;5052293;28;20438;-69
2023/03/24 07:29:24;;;;;;;35.75;4.35;;;;;;;8.45;100.00;100141.78;5052061;28;20112;-69
2023/03/24 07:31:50;;;;;;;26.65;4.65;;;;;;;8.53;100.00;100132.28;5051518;28;20449;-69
2023/03/24 07:34:15;;;;;;;31.45;3.97;;;;;;;8.63;100.00;100133.09;5051933;28;20033;-69
2023/03/24 07:36:40;;;;;;;35.55;4.47;;;;;;;8.70;100.00;100133.34;5051582;28;20080;-70
2023/03/24 07:39:08;;;;;;;26.80;4.07;;;;;;;8.68;100.00;100152.06;5052234;28;20086;-69
2023/03/24 07:41:33;;;;;;;30.85;3.70;;;;;;;8.72;100.00;100142.84;5051816;28;20025;-70
2023/03/24 07:43:59;;;;;;;23.45;3.42;;;;;;;8.69;100.00;100148.44;5051939;28;20044;-69
2023/03/24 07:46:24;;;;;;;23.85;3.15;;;;;;;8.71;100.00;100154.44;5051967;28;20052;-69
2023/03/24 07:48:50;;;;;;;22.17;3.35;;;;;;;8.73;100.00;100152.50;5051520;28;20120;-69
2023/03/24 07:51:16;;;;;;;23.45;3.67;;;;;;;8.80;100.00;100155.38;5051513;28;20060;-69
2023/03/24 07:53:44;;;;;;;20.40;2.97;;;;;;;8.93;100.00;100147.13;5051416;28;20089;-70
2023/03/24 07:56:10;;;;;;;24.10;3.08;;;;;;;9.06;100.00;100152.06;5051727;28;20029;-69
2023/03/24 07:58:35;;;;;;;19.73;3.45;;;;;;;9.22;100.00;100149.63;5051835;28;20186;-69
2023/03/24 08:01:01;;;;;;;22.35;3.13;;;;;;;9.31;100.00;100154.06;5051400;28;20036;-69
2023/03/24 08:03:26;;;;;;;22.83;3.63;;;;;;;9.33;100.00;100161.88;5051688;28;20445;-69
2023/03/24 08:05:54;;;;;;;15.32;3.20;;;;;;;9.44;100.00;100148.41;5054753;28;20029;-69
2023/03/24 08:08:20;;;;;;;23.08;2.97;;;;;;;9.43;100.00;100167.97;5055476;28;20112;-69
2023/03/24 08:10:48;;;;;;;17.95;3.00;;;;;;;9.34;100.00;100175.03;5054896;28;20029;-69
2023/03/24 08:13:14;;;;;;;18.60;3.05;;;;;;;9.27;100.00;100165.13;5055219;28;20116;-69
2023/03/24 08:15:40;;;;;;;20.67;3.70;;;;;;;9.26;100.00;100171.44;5054806;28;20163;-69
2023/03/24 08:18:05;;;;;;;23.85;3.00;;;;;;;9.31;100.00;100169.16;5055069;28;20064;-68
2023/03/24 08:20:31;;;;;;;19.42;3.28;;;;;;;9.51;100.00;100176.03;5054995;28;20033;-68
2023/03/24 08:22:56;;;;;;;22.88;3.25;;;;;;;9.68;100.00;100179.72;5054344;28;20035;-68
2023/03/24 08:25:24;;;;;;;21.67;4.05;;;;;;;9.88;100.00;100167.16;5054850;28;20037;-68
2023/03/24 08:27:50;;;;;;;18.67;2.80;;;;;;;9.98;100.00;100172.38;5054349;28;20037;-68
2023/03/24 08:30:19;;;;;;;13.23;2.78;;;;;;;10.04;100.00;100182.38;5054565;28;20495;-68
2023/03/24 08:32:54;;;;;;;15.45;2.40;;;;;;;10.11;100.00;100184.47;5040005;28;20040;-69
2023/03/24 08:35:25;;;;;;;20.35;3.30;;;;;;;9.96;100.00;100192.97;5054294;28;20047;-68
2023/03/24 08:37:51;;;;;;;15.15;2.78;;;;;;;9.86;100.00;100190.34;5053549;28;20075;-67
2023/03/24 08:40:22;;;;;;;18.35;2.80;;;;;;;9.89;100.00;100207.81;5053976;28;20028;-69
2023/03/24 08:42:49;;;;;;;17.05;2.80;;;;;;;9.75;100.00;100197.69;5053735;28;20036;-67
2023/03/24 08:45:19;;;;;;;16.50;2.63;;;;;;;9.76;100.00;100210.00;5053606;28;20037;-67
2023/03/24 08:47:45;;;;;;;14.18;2.83;;;;;;;9.68;100.00;100208.94;5053362;28;20064;-67
2023/03/24 08:50:11;;;;;;;14.38;2.25;;;;;;;9.71;100.00;100205.16;5053803;28;20037;-68
2023/03/24 08:52:36;;;;;;;17.70;3.00;;;;;;;9.64;100.00;100220.00;5053570;28;20033;-68
2023/03/24 08:55:02;;;;;;;19.25;3.28;;;;;;;9.77;100.00;100214.34;5035370;28;20033;-67
2023/03/24 08:57:28;;;;;;;13.32;2.83;;;;;;;10.00;100.00;100217.41;5053642;28;20043;-67
2023/03/24 08:59:54;;;;;;;13.65;2.80;;;;;;;9.86;100.00;100232.88;5053169;28;20037;-67
2023/03/24 09:02:20;;;;;;;21.88;3.05;;;;;;;9.77;100.00;100231.13;5053620;28;20399;-67
2023/03/24 09:04:45;;;;;;;21.27;3.60;;;;;;;10.11;100.00;100227.00;5052900;28;20028;-68
2023/03/24 09:07:11;;;;;;;19.98;3.28;;;;;;;10.29;100.00;100216.38;5053385;28;20041;-69
2023/03/24 09:09:38;;;;;;;26.13;3.60;;;;;;;10.26;100.00;100246.75;5053322;28;20488;-67
2023/03/24 09:12:04;;;;;;;23.80;3.40;;;;;;;10.74;100.00;100228.72;5052852;28;20043;-70
2023/03/24 09:14:29;;;;;;;21.88;3.08;;;;;;;11.82;100.00;100228.28;5053034;28;20041;-68
2023/03/24 09:16:55;;;;;;;23.42;3.67;;;;;;;13.13;100.00;100242.72;5052321;28;20457;-67
2023/03/24 09:19:20;;;;;;;20.40;3.22;;;;;;;13.46;100.00;100238.13;5053069;28;20035;-69
2023/03/24 09:21:47;;;;;;;23.25;3.88;;;;;;;13.39;100.00;100240.69;5052914;28;20641;-69
2023/03/24 09:24:13;;;;;;;14.02;2.85;;;;;;;12.93;100.00;100239.56;5053246;28;20041;-68
2023/03/24 09:26:39;;;;;;;22.70;3.75;;;;;;;12.40;100.00;100255.09;5053001;28;20069;-67
2023/03/24 09:29:05;;;;;;;20.45;3.47;;;;;;;12.38;100.00;100251.78;5052439;28;20040;-68
2023/03/24 09:31:30;;;;;;;20.33;3.55;;;;;;;12.79;100.00;100249.91;5052881;28;20510;-68
2023/03/24 09:33:56;;;;;;;20.98;3.25;;;;;;;13.07;100.00;100254.09;5052579;28;20460;-68
2023/03/24 09:36:21;;;;;;;24.50;3.58;;;;;;;13.18;100.00;100243.88;5035054;28;20039;-68
2023/03/24 09:38:47;;;;;;;18.75;3.80;;;;;;;13.34;100.00;100251.03;5052296;28;20072;-69
2023/03/24 09:41:25;;;;;;;21.65;3.58;;;;;;;14.08;100.00;100248.03;5052621;28;20085;-68
2023/03/24 09:43:53;;;;;;;20.80;3.45;;;;;;;14.21;100.00;100251.97;5052335;28;20199;-68
2023/03/24 09:46:35;;;;;;;21.80;3.20;;;;;;;14.99;100.00;100245.53;5052221;28;20059;-68
2023/03/24 09:49:03;;;;;;;14.55;3.15;;;;;;;14.91;100.00;100242.94;5052506;28;20033;-67
2023/03/24 09:51:34;;;;;;;15.73;3.55;;;;;;;14.89;100.00;100260.19;5035185;28;20033;-68
2023/03/24 09:54:04;;;;;;;18.30;3.35;;;;;;;14.19;100.00;100262.03;5052274;28;20419;-68
2023/03/24 09:56:32;;;;;;;20.65;4.25;;;;;;;13.75;100.00;100252.75;5052503;28;20048;-68
2023/03/24 09:59:11;;;;;;;17.73;3.38;;;;;;;12.96;100.00;100239.25;5051965;28;20083;-68
2023/03/24 10:01:36;;;;;;;15.57;3.35;;;;;;;12.64;100.00;100238.25;5052327;28;20401;-68
2023/03/24 10:04:03;;;;;;;15.40;3.33;;;;;;;13.20;100.00;100260.56;5052168;28;20033;-69
2023/03/24 10:06:35;;;;;;;16.10;3.25;;;;;;;13.34;100.00;100252.88;5052506;28;20040;-69
2023/03/24 10:09:14;;;;;;;11.68;2.65;;;;;;;14.53;100.00;100260.81;5051897;28;20071;-69
2023/03/24 10:12:03;;;;;;;20.17;3.53;;;;;;;15.62;97.04;100263.13;5052254;28;20076;-69
2023/03/24 10:14:54;;;;;;;19.73;2.97;;;;;;;15.85;89.49;100269.22;5052370;28;20071;-69
2023/03/24 10:17:47;;;;;;;14.30;3.35;;;;;;;14.45;99.18;100259.00;5052074;28;20075;-69
2023/03/24 10:20:20;;;;;;;14.68;3.08;;;;;;;13.59;100.00;100267.00;5051609;28;20419;-69
2023/03/24 10:23:22;;;;;;;18.90;3.05;;;;;;;13.00;100.00;100262.78;5052167;28;20037;-69
2023/03/24 10:25:48;;;;;;;18.02;2.85;;;;;;;12.62;100.00;100264.28;5051978;28;20102;-69
2023/03/24 10:28:29;;;;;;;19.20;3.38;;;;;;;12.10;100.00;100270.72;5051435;28;20461;-69
2023/03/24 10:30:59;;;;;;;22.20;3.33;;;;;;;11.80;100.00;100270.25;5051436;28;20025;-69
2023/03/24 10:33:25;;;;;;;15.82;3.45;;;;;;;12.20;100.00;100267.91;5051729;28;20116;-70
2023/03/24 10:36:06;;;;;;;23.90;3.42;;;;;;;12.62;100.00;100266.97;5051387;28;20116;-70
2023/03/24 10:38:32;;;;;;;19.42;2.72;;;;;;;13.21;100.00;100259.56;5051838;28;20039;-70
2023/03/24 10:40:58;;;;;;;12.93;2.67;;;;;;;13.99;100.00;100256.28;5050994;28;20108;-70
2023/03/24 10:43:25;;;;;;;19.52;3.38;;;;;;;14.23;100.00;100263.34;5051449;28;20049;-69
2023/03/24 10:45:52;;;;;;;22.58;3.85;;;;;;;13.51;100.00;100256.31;5051628;28;20110;-70
2023/03/24 10:49:08;;;;;;;19.23;2.92;;;;;;;12.77;100.00;100267.13;5051570;28;20025;-70
2023/03/24 10:51:35;;;;;;;25.25;3.97;;;;;;;12.20;100.00;100270.59;4951045;29;20066;-70
2023/03/24 10:54:19;;;;;;;21.27;3.40;;;;;;;12.06;100.00;100269.38;5041346;28;20040;-69
2023/03/24 10:56:50;;;;;;;21.77;3.20;;;;;;;12.27;100.00;100268.91;5051554;28;20465;-70
2023/03/24 10:59:19;;;;;;;;;;;;;;;12.54;100.00;100254.47;5034050;28;20021;-70
2023/03/24 11:01:45;;;;;;;17.90;2.83;;;;;;;12.90;100.00;100275.47;5051331;28;19947;-69
2023/03/24 11:04:14;;;;;;;16.85;2.55;;;;;;;12.51;100.00;100263.63;5051124;28;20047;-69
2023/03/24 11:06:56;;;;;;;16.40;3.20;;;;;;;12.69;100.00;100268.78;5067650;28;20078;-68
2023/03/24 11:09:21;;;;;;;18.13;2.63;;;;;;;13.89;100.00;100272.56;5071058;28;20029;-74
2023/03/24 11:11:49;;;;;;;18.40;2.78;;;;;;;14.59;100.00;100271.59;5086324;28;20051;-69
2023/03/24 11:14:25;;;;;;;16.80;2.75;;;;;;;15.22;93.78;100267.91;5070564;28;20036;-70
2023/03/24 11:16:52;;;;;;;15.07;2.60;;;;;;;15.30;94.85;100278.53;5070405;28;20035;-71
2023/03/24 11:19:21;;;;;;;11.00;2.08;;;;;;;14.63;92.17;100272.13;5070443;28;20105;-70
2023/03/24 11:21:50;;;;;;;14.07;2.50;;;;;;;14.07;100.00;100267.75;5070978;28;20032;-69
2023/03/24 11:24:17;;;;;;;14.43;3.05;;;;;;;13.99;100.00;100267.81;5051283;28;20116;-68
2023/03/24 11:26:55;;;;;;;18.67;2.55;;;;;;;13.66;100.00;100261.78;5069946;28;20464;-70
2023/03/24 11:29:24;;;;;;;14.48;2.47;;;;;;;13.84;100.00;100273.09;5070251;28;20107;-72
2023/03/24 11:32:00;;;;;;;12.18;2.67;;;;;;;14.10;100.00;100280.78;5070468;28;20445;-70
2023/03/24 11:34:37;;;;;;;13.48;2.03;;;;;;;13.98;100.00;100276.84;5070917;28;20024;-69
2023/03/24 11:37:17;;;;;;;8.93;1.50;;;;;;;13.97;100.00;100274.34;5069852;28;20625;-69